createdAt,value
2023-03-19T00:00:10.301Z,61.80
2023-03-19T00:04:00.289Z,72.78
2023-03-19T00:07:28.524Z,62.90
2023-03-19T00:10:56.285Z,64.75
2023-03-19T00:14:24.545Z,62.97
2023-03-19T00:21:24.263Z,54.58
2023-03-19T00:24:54.040Z,54.65
2023-03-19T00:31:50.599Z,57.78
2023-03-19T00:35:19.280Z,62.30
2023-03-19T00:38:50.291Z,56.72
2023-03-19T00:42:18.572Z,57.88
2023-03-19T00:45:47.770Z,64.22
2023-03-19T00:49:16.010Z,64.30
2023-03-19T00:52:44.373Z,62.78
2023-03-19T00:59:42.710Z,62.05
2023-03-19T01:03:11.069Z,58.03
2023-03-19T01:06:38.939Z,62.22
2023-03-19T01:10:07.507Z,59.15
2023-03-19T01:13:37.177Z,62.58
2023-03-19T01:17:05.743Z,57.55
2023-03-19T01:20:33.888Z,57.47
2023-03-19T01:24:02.235Z,58.63
2023-03-19T01:27:30.870Z,51.50
2023-03-19T01:31:02.027Z,56.92
2023-03-19T01:34:32.781Z,56.92
2023-03-19T01:38:19.811Z,55.40
2023-03-19T01:41:49.343Z,58.22
2023-03-19T01:45:37.277Z,54.00
2023-03-19T01:49:29.002Z,45.58
2023-03-19T01:53:16.939Z,52.35
2023-03-19T01:56:53.885Z,50.57
2023-03-19T02:00:44.972Z,45.30
2023-03-19T02:04:14.800Z,51.22
2023-03-19T02:07:46.621Z,43.13
2023-03-19T02:11:15.957Z,38.25
2023-03-19T02:14:44.129Z,36.38
2023-03-19T02:21:45.589Z,36.38
2023-03-19T02:25:18.394Z,41.88
2023-03-19T02:28:49.878Z,40.17
2023-03-19T02:32:23.274Z,41.88
2023-03-19T02:35:52.882Z,39.08
2023-03-19T02:39:23.506Z,36.78
2023-03-19T02:42:54.428Z,41.95
2023-03-19T02:46:28.257Z,39.08
2023-03-19T02:49:56.121Z,38.58
2023-03-19T02:53:24.412Z,37.58
2023-03-19T02:56:53.419Z,39.55
2023-03-19T03:00:23.011Z,38.90
2023-03-19T03:03:50.943Z,42.78
2023-03-19T03:07:19.321Z,42.08
2023-03-19T03:14:15.032Z,38.67
2023-03-19T03:17:45.037Z,40.60
2023-03-19T03:21:13.976Z,36.53
2023-03-19T03:24:42.198Z,36.03
2023-03-19T03:28:10.714Z,38.97
2023-03-19T03:37:32.863Z,36.67
2023-03-19T03:41:00.664Z,35.38
2023-03-19T03:44:28.978Z,33.33
2023-03-19T03:47:57.037Z,38.13
2023-03-19T03:51:26.061Z,39.25
2023-03-19T03:54:55.261Z,38.60
2023-03-19T03:58:24.153Z,30.98
2023-03-19T04:01:52.328Z,35.15
2023-03-19T04:05:20.675Z,32.58
2023-03-19T04:08:48.619Z,37.13
2023-03-19T04:12:18.073Z,32.08
2023-03-19T04:15:46.740Z,37.78
2023-03-19T04:19:15.678Z,33.58
2023-03-19T04:22:43.632Z,34.92
2023-03-19T04:26:12.354Z,38.65
2023-03-19T04:29:41.571Z,34.92
2023-03-19T04:33:11.140Z,38.40
2023-03-19T04:36:39.837Z,35.40
2023-03-19T04:40:08.582Z,41.90
2023-03-19T04:43:38.387Z,37.78
2023-03-19T04:47:08.133Z,38.40
2023-03-19T04:50:51.905Z,37.42
2023-03-19T04:54:20.849Z,30.88
2023-03-19T04:57:48.891Z,36.40
2023-03-19T05:01:19.675Z,38.47
2023-03-19T05:05:09.627Z,34.78
2023-03-19T05:08:37.553Z,37.30
2023-03-19T05:12:06.200Z,39.38
2023-03-19T05:15:43.207Z,36.67
2023-03-19T05:19:14.543Z,36.95
2023-03-19T05:22:42.605Z,38.47
2023-03-19T05:26:11.691Z,40.50
2023-03-19T05:30:17.818Z,56.72
2023-03-19T05:33:47.297Z,49.33
2023-03-19T05:37:15.778Z,42.03
2023-03-19T05:40:47.450Z,36.78
2023-03-19T05:44:38.064Z,40.33
2023-03-19T05:48:38.372Z,36.78
2023-03-19T05:52:09.730Z,38.95
2023-03-19T05:55:38.297Z,34.50
2023-03-19T05:59:09.152Z,34.35
2023-03-19T06:02:41.919Z,39.10
2023-03-19T06:06:34.638Z,40.38
2023-03-19T06:10:02.899Z,31.05
2023-03-19T06:13:31.302Z,32.47
2023-03-19T06:17:09.444Z,30.88
2023-03-19T06:20:37.837Z,35.10
2023-03-19T06:24:07.689Z,36.70
2023-03-19T06:27:37.023Z,42.08
2023-03-19T06:31:19.119Z,33.97
2023-03-19T06:34:59.421Z,35.72
2023-03-19T06:41:57.760Z,29.00
2023-03-19T06:45:28.250Z,36.28
2023-03-19T06:48:56.753Z,48.65
2023-03-19T06:52:24.734Z,42.40
2023-03-19T06:55:54.498Z,42.13
2023-03-19T06:59:22.498Z,40.88
2023-03-19T07:02:50.738Z,45.55
2023-03-19T07:09:46.903Z,57.10
2023-03-19T07:13:16.270Z,50.67
2023-03-19T07:16:44.589Z,50.08
2023-03-19T07:20:13.054Z,45.05
2023-03-19T07:23:41.631Z,39.47
2023-03-19T07:27:39.384Z,36.75
2023-03-19T07:31:09.067Z,39.03
2023-03-19T07:34:37.423Z,40.42
2023-03-19T07:38:05.594Z,39.50
2023-03-19T07:41:33.832Z,39.05
2023-03-19T07:45:03.932Z,37.42
2023-03-19T07:48:32.216Z,36.13
2023-03-19T07:52:00.201Z,38.72
2023-03-19T07:55:28.376Z,54.53
2023-03-19T07:58:56.123Z,85.22
2023-03-19T08:02:26.429Z,64.13
2023-03-19T08:05:54.380Z,57.92
2023-03-19T08:09:22.482Z,86.50
2023-03-19T08:16:18.708Z,52.73
2023-03-19T08:19:48.327Z,47.08
2023-03-19T08:23:16.768Z,56.05
2023-03-19T08:26:44.861Z,56.53
2023-03-19T08:30:13.723Z,52.38
2023-03-19T08:33:41.997Z,46.17
2023-03-19T08:37:12.358Z,47.35
2023-03-19T08:40:40.592Z,40.17
2023-03-19T08:44:08.618Z,50.67
2023-03-19T08:47:36.742Z,43.05
2023-03-19T08:51:05.592Z,41.35
2023-03-19T08:54:35.117Z,45.95
2023-03-19T08:58:03.397Z,49.83
2023-03-19T09:01:31.303Z,44.17
2023-03-19T09:04:59.458Z,47.95
2023-03-19T09:08:28.247Z,49.33
2023-03-19T09:11:58.404Z,48.75
2023-03-19T09:15:26.811Z,45.90
2023-03-19T09:18:54.534Z,49.15
2023-03-19T09:22:22.602Z,45.55
2023-03-19T09:25:51.337Z,34.50
2023-03-19T09:29:21.179Z,38.55
2023-03-19T09:32:49.498Z,30.08
2023-03-19T09:36:17.896Z,33.78
2023-03-19T09:39:46.498Z,30.35
2023-03-19T09:43:36.350Z,33.47
2023-03-19T09:47:14.297Z,27.75
2023-03-19T09:50:45.420Z,22.90
2023-03-19T09:54:24.446Z,19.00
2023-03-19T09:57:54.787Z,26.00
2023-03-19T10:01:27.454Z,24.70
2023-03-19T10:05:09.504Z,26.50
2023-03-19T10:08:55.020Z,26.38
2023-03-19T10:12:42.169Z,22.27
2023-03-19T10:16:20.601Z,23.25
2023-03-19T10:19:52.398Z,22.02
2023-03-19T10:23:35.846Z,20.60
2023-03-19T10:27:10.957Z,21.25
2023-03-19T10:30:39.538Z,20.80
2023-03-19T10:34:18.873Z,19.77
2023-03-19T10:37:47.323Z,20.08
2023-03-19T10:41:24.815Z,20.83
2023-03-19T10:44:57.926Z,18.45
2023-03-19T10:48:29.326Z,16.48
2023-03-19T10:51:59.610Z,17.42
2023-03-19T10:55:31.044Z,17.27
2023-03-19T10:59:04.661Z,17.67
2023-03-19T11:02:34.250Z,16.83
2023-03-19T11:06:26.538Z,18.20
2023-03-19T11:09:58.475Z,19.52
2023-03-19T11:12:34.042Z,19.15
2023-03-19T11:15:07.597Z,18.23
2023-03-19T11:17:40.768Z,18.05
2023-03-19T11:20:24.788Z,16.97
2023-03-19T11:22:55.897Z,14.55
2023-03-19T11:25:29.185Z,16.90
2023-03-19T11:28:04.056Z,15.70
2023-03-19T11:30:44.757Z,14.38
2023-03-19T11:33:45.588Z,14.25
2023-03-19T11:36:22.693Z,14.60
2023-03-19T11:39:07.988Z,14.13
2023-03-19T11:41:53.065Z,32.95
2023-03-19T11:44:29.778Z,26.67
2023-03-19T11:47:17.812Z,13.20
2023-03-19T11:50:06.575Z,14.13
2023-03-19T11:52:42.698Z,23.02
2023-03-19T11:55:22.539Z,33.42
2023-03-19T11:58:07.702Z,42.90
2023-03-19T12:00:44.584Z,14.95
2023-03-19T12:03:58.809Z,16.13
2023-03-19T12:06:40.390Z,15.15
2023-03-19T12:09:21.210Z,15.38
2023-03-19T12:11:55.512Z,24.02
2023-03-19T12:14:42.656Z,13.25
2023-03-19T12:17:31.250Z,12.00
2023-03-19T12:20:19.326Z,16.20
2023-03-19T12:23:01.211Z,12.13
2023-03-19T12:25:50.650Z,12.88
2023-03-19T12:28:25.387Z,10.70
2023-03-19T12:31:34.624Z,11.90
2023-03-19T12:34:27.211Z,12.65
2023-03-19T12:37:05.898Z,11.63
2023-03-19T12:39:40.097Z,10.98
2023-03-19T12:42:17.617Z,11.98
2023-03-19T12:44:52.561Z,10.50
2023-03-19T12:47:27.958Z,10.40
2023-03-19T12:50:02.898Z,10.23
2023-03-19T12:52:37.715Z,10.27
2023-03-19T12:55:16.361Z,11.93
2023-03-19T12:57:52.842Z,14.52
2023-03-19T13:00:29.865Z,11.43
2023-03-19T13:03:06.207Z,11.55
2023-03-19T13:05:43.656Z,12.82
2023-03-19T13:08:19.081Z,10.80
2023-03-19T13:10:48.666Z,10.75
2023-03-19T13:13:37.699Z,10.82
2023-03-19T13:16:20.125Z,12.30
2023-03-19T13:18:57.508Z,9.60
2023-03-19T13:21:32.095Z,9.93
2023-03-19T13:24:09.834Z,10.20
2023-03-19T13:26:40.760Z,9.80
2023-03-19T13:29:20.312Z,10.90
2023-03-19T13:31:50.827Z,10.65
2023-03-19T13:34:25.611Z,10.30
2023-03-19T13:37:07.127Z,10.25
2023-03-19T13:39:38.157Z,11.80
2023-03-19T13:42:46.376Z,10.35
2023-03-19T13:45:37.461Z,12.60
2023-03-19T13:48:37.621Z,11.10
2023-03-19T13:51:25.377Z,10.65
2023-03-19T13:53:56.877Z,13.48
2023-03-19T13:56:30.597Z,12.75
2023-03-19T13:59:26.929Z,12.88
2023-03-19T14:01:58.373Z,10.98
2023-03-19T14:04:30.848Z,14.00
2023-03-19T14:07:12.007Z,11.88
2023-03-19T14:09:43.730Z,12.57
2023-03-19T14:12:24.641Z,17.88
2023-03-19T14:14:57.337Z,14.75
2023-03-19T14:17:32.807Z,13.93
2023-03-19T14:20:26.693Z,14.52
2023-03-19T14:23:23.490Z,13.57
2023-03-19T14:26:07.545Z,11.57
2023-03-19T14:28:43.757Z,15.65
2023-03-19T14:31:23.075Z,14.20
2023-03-19T14:33:59.640Z,14.60
2023-03-19T14:36:31.823Z,15.93
2023-03-19T14:39:05.224Z,15.27
2023-03-19T14:41:40.669Z,17.33
2023-03-19T14:44:53.167Z,20.17
2023-03-19T14:47:49.352Z,24.23
2023-03-19T14:50:43.177Z,22.38
2023-03-19T14:53:15.191Z,26.35
2023-03-19T14:55:50.473Z,20.52
2023-03-19T14:58:22.132Z,19.55
2023-03-19T15:00:54.702Z,22.73
2023-03-19T15:03:31.635Z,28.83
2023-03-19T15:06:05.325Z,26.02
2023-03-19T15:08:38.029Z,29.35
2023-03-19T15:11:31.628Z,26.77
2023-03-19T15:14:17.797Z,24.67
2023-03-19T15:16:54.249Z,30.58
2023-03-19T15:19:28.388Z,30.75
2023-03-19T15:22:13.452Z,32.22
2023-03-19T15:24:43.496Z,31.88
2023-03-19T15:27:21.208Z,32.05
2023-03-19T15:29:51.941Z,31.73
2023-03-19T15:32:52.293Z,28.73
2023-03-19T15:35:30.748Z,32.70
2023-03-19T15:38:03.653Z,28.67
2023-03-19T15:40:34.733Z,32.17
2023-03-19T15:43:04.813Z,29.58
2023-03-19T15:45:35.816Z,33.75
2023-03-19T15:48:08.493Z,99.20
2023-03-19T15:50:41.319Z,71.13
2023-03-19T15:53:16.629Z,98.53
2023-03-19T15:55:49.297Z,91.63
2023-03-19T15:58:22.409Z,96.35
2023-03-19T16:00:55.037Z,76.03
2023-03-19T16:03:30.028Z,63.85
2023-03-19T16:06:04.767Z,62.55
2023-03-19T16:08:36.291Z,50.83
2023-03-19T16:11:16.636Z,39.95
2023-03-19T16:13:57.118Z,39.67
2023-03-19T16:16:30.170Z,46.28
2023-03-19T16:19:00.541Z,56.13
2023-03-19T16:21:38.351Z,54.92
2023-03-19T16:24:21.202Z,46.50
2023-03-19T16:26:51.675Z,43.38
2023-03-19T16:29:24.437Z,38.45
2023-03-19T16:31:58.091Z,41.10
2023-03-19T16:34:42.569Z,44.65
2023-03-19T16:37:41.603Z,42.65
2023-03-19T16:40:50.391Z,39.05
2023-03-19T16:43:23.930Z,39.67
2023-03-19T16:46:05.587Z,41.20
2023-03-19T16:48:35.386Z,39.05
2023-03-19T16:51:05.238Z,43.50
2023-03-19T16:53:35.956Z,44.00
2023-03-19T16:56:05.825Z,38.38
2023-03-19T16:58:42.593Z,41.95
2023-03-19T17:01:18.212Z,44.03
2023-03-19T17:03:49.621Z,45.60
2023-03-19T17:06:19.875Z,79.57
2023-03-19T17:08:49.949Z,86.95
2023-03-19T17:11:25.603Z,93.63
2023-03-19T17:13:58.843Z,82.10
2023-03-19T17:16:29.348Z,85.78
2023-03-19T17:19:00.107Z,84.72
2023-03-19T17:21:33.426Z,91.45
2023-03-19T17:24:18.999Z,90.00
2023-03-19T17:26:48.513Z,117.75
2023-03-19T17:29:20.900Z,260.67
2023-03-19T17:31:50.769Z,69.18
2023-03-19T17:34:22.425Z,79.32
2023-03-19T17:36:54.604Z,111.63
2023-03-19T17:39:25.064Z,155.43
2023-03-19T17:41:55.029Z,164.77
2023-03-19T17:44:27.953Z,173.93
2023-03-19T17:46:58.067Z,168.70
2023-03-19T17:49:30.143Z,160.70
2023-03-19T17:52:00.783Z,167.98
2023-03-19T17:54:30.837Z,120.18
2023-03-19T17:57:00.252Z,77.28
2023-03-19T17:59:31.500Z,73.38
2023-03-19T18:02:01.262Z,85.93
2023-03-19T18:04:30.969Z,106.55
2023-03-19T18:07:00.461Z,105.53
2023-03-19T18:09:30.564Z,114.28
2023-03-19T18:11:59.912Z,87.57
2023-03-19T18:14:30.942Z,126.97
2023-03-19T18:17:00.759Z,110.90
2023-03-19T18:19:32.166Z,96.45
2023-03-19T18:22:01.755Z,88.68
2023-03-19T18:24:31.758Z,97.75
2023-03-19T18:27:01.095Z,100.78
2023-03-19T18:29:32.319Z,104.40
2023-03-19T18:32:07.575Z,121.13
2023-03-19T18:37:06.691Z,98.57
2023-03-19T18:39:39.253Z,110.60
2023-03-19T18:42:08.719Z,114.20
2023-03-19T18:44:39.893Z,116.72
2023-03-19T18:47:14.521Z,113.40
2023-03-19T18:49:45.001Z,106.78
2023-03-19T18:52:19.227Z,103.88
2023-03-19T18:54:49.789Z,114.78
2023-03-19T18:57:19.441Z,120.70
2023-03-19T18:59:50.812Z,126.32
2023-03-19T19:02:30.545Z,123.88
2023-03-19T19:05:01.787Z,106.35
2023-03-19T19:07:31.974Z,108.07
2023-03-19T19:10:05.400Z,97.30
2023-03-19T19:12:35.552Z,102.63
2023-03-19T19:15:09.269Z,110.78
2023-03-19T19:17:39.254Z,96.57
2023-03-19T19:20:12.091Z,88.45
2023-03-19T19:22:41.521Z,94.95
2023-03-19T19:25:16.715Z,97.68
2023-03-19T19:27:48.466Z,103.25
2023-03-19T19:30:22.618Z,92.25
2023-03-19T19:32:52.421Z,99.80
2023-03-19T19:35:23.673Z,93.82
2023-03-19T19:37:53.719Z,99.43
2023-03-19T19:40:28.531Z,162.13
2023-03-19T19:43:00.809Z,136.57
2023-03-19T19:45:36.624Z,138.50
2023-03-19T19:48:08.994Z,83.45
2023-03-19T19:50:38.759Z,88.20
2023-03-19T19:53:08.160Z,80.43
2023-03-19T19:55:38.169Z,91.20
2023-03-19T19:58:11.376Z,89.43
2023-03-19T20:00:47.715Z,78.43
2023-03-19T20:03:25.144Z,84.70
2023-03-19T20:05:56.257Z,83.43
2023-03-19T20:08:27.076Z,92.53
2023-03-19T20:10:57.867Z,91.63
2023-03-19T20:13:30.229Z,92.07
2023-03-19T20:16:03.869Z,90.05
2023-03-19T20:18:36.113Z,93.68
2023-03-19T20:21:07.218Z,88.95
2023-03-19T20:23:36.709Z,89.22
2023-03-19T20:26:07.280Z,93.35
2023-03-19T20:28:37.193Z,93.35
2023-03-19T20:31:08.378Z,89.72
2023-03-19T20:33:38.697Z,92.50
2023-03-19T20:36:10.494Z,109.13
2023-03-19T20:38:39.939Z,133.32
2023-03-19T20:41:20.247Z,148.10
2023-03-19T20:43:50.585Z,179.13
2023-03-19T20:46:23.423Z,367.77
2023-03-19T20:48:54.122Z,323.65
2023-03-19T20:51:26.408Z,291.63
2023-03-19T20:53:55.705Z,205.77
2023-03-19T20:56:25.721Z,165.25
2023-03-19T20:58:55.293Z,172.73
2023-03-19T21:01:26.710Z,161.50
2023-03-19T21:03:56.319Z,153.55
2023-03-19T21:06:26.761Z,153.23
2023-03-19T21:08:59.746Z,142.20
2023-03-19T21:11:38.337Z,135.50
2023-03-19T21:14:08.023Z,120.13
2023-03-19T21:16:39.266Z,108.88
2023-03-19T21:19:08.621Z,111.22
2023-03-19T21:21:39.646Z,132.88
2023-03-19T21:24:13.921Z,144.55
2023-03-19T21:26:45.885Z,139.82
2023-03-19T21:29:21.560Z,127.50
2023-03-19T21:34:23.640Z,137.00
2023-03-19T21:36:53.317Z,134.85
2023-03-19T21:39:22.858Z,138.57
2023-03-19T21:41:52.762Z,135.85
2023-03-19T21:44:24.577Z,135.93
2023-03-19T21:46:55.816Z,145.57
2023-03-19T21:49:25.060Z,171.48
2023-03-19T21:51:57.118Z,147.80
2023-03-19T21:54:26.481Z,157.88
2023-03-19T21:56:56.108Z,162.88
2023-03-19T21:59:28.906Z,170.55
2023-03-19T22:01:59.953Z,149.57
2023-03-19T22:04:29.387Z,144.45
2023-03-19T22:06:58.985Z,178.88
2023-03-19T22:09:28.329Z,175.52
2023-03-19T22:11:57.857Z,167.45
2023-03-19T22:14:28.737Z,175.23
2023-03-19T22:17:01.120Z,168.50
2023-03-19T22:19:30.436Z,145.02
2023-03-19T22:21:59.889Z,125.47
2023-03-19T22:24:29.113Z,121.45
2023-03-19T22:26:59.792Z,134.07
2023-03-19T22:29:29.380Z,117.53
2023-03-19T22:32:00.557Z,117.03
2023-03-19T22:34:30.040Z,115.03
2023-03-19T22:37:00.424Z,118.15
2023-03-19T22:39:29.631Z,119.10
2023-03-19T22:41:59.197Z,106.95
2023-03-19T22:44:30.797Z,123.68
2023-03-19T22:47:03.100Z,106.28
2023-03-19T22:49:33.548Z,113.20
2023-03-19T22:52:03.137Z,113.57
2023-03-19T22:54:32.634Z,119.35
2023-03-19T22:57:02.205Z,108.80
2023-03-19T22:59:31.663Z,104.05
2023-03-19T23:02:02.883Z,108.75
2023-03-19T23:04:34.010Z,100.72
2023-03-19T23:07:03.753Z,107.90
2023-03-19T23:09:36.005Z,130.98
2023-03-19T23:14:36.860Z,126.68
2023-03-19T23:17:17.686Z,119.32
2023-03-19T23:19:47.102Z,127.00
2023-03-19T23:22:18.297Z,104.60
2023-03-19T23:24:47.595Z,117.70
2023-03-19T23:27:24.255Z,111.88
2023-03-19T23:29:53.885Z,113.90
2023-03-19T23:32:24.833Z,97.47
2023-03-19T23:35:00.556Z,107.55
2023-03-19T23:37:31.150Z,115.90
2023-03-19T23:40:00.811Z,120.45
2023-03-19T23:42:32.963Z,122.78
2023-03-19T23:45:04.579Z,108.00
2023-03-19T23:47:36.930Z,103.60
2023-03-19T23:50:11.384Z,107.57
2023-03-19T23:52:41.108Z,110.90
2023-03-19T23:55:11.186Z,112.45
2023-03-19T23:57:41.835Z,363.60
